createdAt,value
2023-01-01T00:01:17.395Z,11.88
2023-01-01T00:04:22.068Z,11.99
2023-01-01T00:07:26.778Z,11.97
2023-01-01T00:10:31.434Z,11.98
2023-01-01T00:13:41.780Z,12.04
2023-01-01T00:16:46.268Z,12.08
2023-01-01T00:19:50.937Z,12.06
2023-01-01T00:22:56.325Z,12.07
2023-01-01T00:26:02.637Z,12.16
2023-01-01T00:29:07.503Z,12.20
2023-01-01T00:32:15.455Z,12.20
2023-01-01T00:35:25.688Z,12.22
2023-01-01T00:38:30.273Z,12.26
2023-01-01T00:41:34.648Z,12.25
2023-01-01T00:44:39.084Z,12.33
2023-01-01T00:47:43.353Z,12.31
2023-01-01T00:50:48.242Z,12.31
2023-01-01T00:53:52.594Z,12.41
2023-01-01T00:56:57.684Z,12.38
2023-01-01T01:00:02.410Z,12.39
2023-01-01T01:03:06.824Z,12.46
2023-01-01T01:06:13.029Z,12.43
2023-01-01T01:09:17.042Z,12.41
2023-01-01T01:12:20.971Z,12.48
2023-01-01T01:15:25.863Z,12.50
2023-01-01T01:18:30.469Z,12.42
2023-01-01T01:21:35.450Z,12.51
2023-01-01T01:24:39.464Z,12.63
2023-01-01T01:27:43.955Z,12.70
2023-01-01T01:30:48.434Z,12.68
2023-01-01T01:33:53.337Z,12.62
2023-01-01T01:36:57.587Z,12.73
2023-01-01T01:40:02.352Z,12.63
2023-01-01T01:43:32.041Z,12.69
2023-01-01T01:46:43.174Z,12.71
2023-01-01T01:49:49.755Z,12.77
2023-01-01T01:53:12.135Z,12.78
2023-01-01T01:56:24.192Z,12.80
2023-01-01T01:59:38.411Z,12.83
2023-01-01T02:02:49.477Z,12.85
2023-01-01T02:05:54.714Z,12.85
2023-01-01T02:09:04.077Z,12.85
2023-01-01T02:12:08.498Z,12.78
2023-01-01T02:15:13.517Z,12.73
2023-01-01T02:18:29.675Z,12.73
2023-01-01T02:21:59.854Z,12.68
2023-01-01T02:25:35.766Z,12.70
2023-01-01T02:29:06.584Z,12.72
2023-01-01T02:32:35.307Z,12.71
2023-01-01T02:35:46.526Z,12.75
2023-01-01T02:38:55.651Z,12.77
2023-01-01T02:42:03.141Z,12.76
2023-01-01T02:45:08.564Z,12.72
2023-01-01T02:48:41.923Z,12.75
2023-01-01T02:52:08.213Z,12.62
2023-01-01T02:55:53.504Z,12.63
2023-01-01T02:59:50.512Z,12.66
2023-01-01T03:03:25.114Z,12.58
2023-01-01T03:07:12.597Z,12.59
2023-01-01T03:10:33.198Z,12.54
2023-01-01T03:13:49.989Z,12.58
2023-01-01T03:17:12.234Z,12.58
2023-01-01T03:20:24.765Z,12.63
2023-01-01T03:23:50.040Z,12.54
2023-01-01T03:27:02.256Z,12.57
2023-01-01T03:30:11.894Z,12.58
2023-01-01T03:33:49.287Z,12.55
2023-01-01T03:36:59.325Z,12.60
2023-01-01T03:40:05.883Z,12.59
2023-01-01T03:43:21.260Z,12.49
2023-01-01T03:46:30.729Z,12.55
2023-01-01T03:49:35.837Z,12.45
2023-01-01T03:53:08.083Z,12.30
2023-01-01T03:56:30.090Z,12.25
2023-01-01T04:00:00.702Z,12.11
2023-01-01T04:03:07.421Z,12.05
2023-01-01T04:06:12.550Z,12.01
2023-01-01T04:09:23.182Z,11.97
2023-01-01T04:12:29.841Z,11.97
2023-01-01T04:15:36.188Z,12.02
2023-01-01T04:18:40.874Z,12.06
2023-01-01T04:21:44.802Z,12.03
2023-01-01T04:24:49.034Z,12.12
2023-01-01T04:27:53.339Z,12.12
2023-01-01T04:31:02.796Z,12.14
2023-01-01T04:34:07.553Z,12.05
2023-01-01T04:37:13.598Z,11.94
2023-01-01T04:40:18.366Z,11.88
2023-01-01T04:43:22.628Z,11.90
2023-01-01T04:46:26.685Z,11.85
2023-01-01T04:49:30.957Z,11.90
2023-01-01T04:52:35.360Z,11.94
2023-01-01T04:55:39.784Z,11.99
2023-01-01T04:58:44.717Z,11.98
2023-01-01T05:01:49.428Z,11.94
2023-01-01T05:04:54.025Z,11.86
2023-01-01T05:07:58.286Z,11.85
2023-01-01T05:11:14.480Z,11.82
2023-01-01T05:14:18.916Z,11.76
2023-01-01T05:17:23.151Z,11.70
2023-01-01T05:20:27.755Z,11.75
2023-01-01T05:23:32.735Z,11.76
2023-01-01T05:26:41.932Z,11.79
2023-01-01T05:29:46.723Z,11.77
2023-01-01T05:32:51.011Z,11.82
2023-01-01T05:35:55.329Z,11.85
2023-01-01T05:39:00.302Z,11.84
2023-01-01T05:42:04.723Z,11.76
2023-01-01T05:45:09.648Z,11.80
2023-01-01T05:48:14.222Z,11.72
2023-01-01T05:51:27.520Z,11.67
2023-01-01T05:54:32.076Z,11.58
2023-01-01T05:57:36.086Z,11.53
2023-01-01T06:00:40.639Z,11.57
2023-01-01T06:03:45.588Z,11.53
2023-01-01T06:06:50.259Z,11.56
2023-01-01T06:09:54.669Z,11.48
2023-01-01T06:12:59.426Z,11.38
2023-01-01T06:16:05.155Z,11.31
2023-01-01T06:19:09.424Z,11.24
2023-01-01T06:22:13.670Z,11.23
2023-01-01T06:25:17.983Z,11.26
2023-01-01T06:28:22.295Z,11.23
2023-01-01T06:31:28.394Z,11.22
2023-01-01T06:34:33.085Z,11.23
2023-01-01T06:37:37.027Z,11.16
2023-01-01T06:40:41.558Z,11.15
2023-01-01T06:43:46.771Z,11.07
2023-01-01T06:46:51.433Z,11.07
2023-01-01T06:49:55.804Z,11.03
2023-01-01T06:52:59.765Z,11.02
2023-01-01T06:56:05.165Z,11.03
2023-01-01T06:59:09.320Z,11.06
2023-01-01T07:02:13.639Z,11.08
2023-01-01T07:05:18.197Z,11.03
2023-01-01T07:08:22.320Z,10.99
2023-01-01T07:11:28.067Z,10.98
2023-01-01T07:14:32.315Z,11.05
2023-01-01T07:17:36.786Z,11.02
2023-01-01T07:20:40.805Z,10.98
2023-01-01T07:23:45.238Z,11.02
2023-01-01T07:26:49.301Z,11.01
2023-01-01T07:29:54.016Z,11.05
2023-01-01T07:32:58.258Z,10.99
2023-01-01T07:36:02.509Z,11.09
2023-01-01T07:39:06.652Z,11.10
2023-01-01T07:42:11.110Z,11.10
2023-01-01T07:45:15.786Z,11.09
2023-01-01T07:48:20.346Z,11.13
2023-01-01T07:51:25.101Z,11.18
2023-01-01T07:54:29.606Z,11.21
2023-01-01T07:57:33.968Z,11.24
2023-01-01T08:00:38.934Z,11.28
2023-01-01T08:03:43.345Z,11.39
2023-01-01T08:06:47.786Z,11.50
2023-01-01T08:09:51.932Z,11.50
2023-01-01T08:13:05.112Z,11.45
2023-01-01T08:16:09.876Z,11.41
2023-01-01T08:19:14.185Z,11.45
2023-01-01T08:22:18.381Z,11.53
2023-01-01T08:25:22.882Z,11.61
2023-01-01T08:28:28.389Z,11.53
2023-01-01T08:31:33.282Z,11.53
2023-01-01T08:34:38.332Z,11.60
2023-01-01T08:37:42.715Z,11.62
2023-01-01T08:40:47.033Z,11.55
2023-01-01T08:43:51.442Z,11.51
2023-01-01T08:46:56.109Z,11.51
2023-01-01T08:50:00.583Z,11.41
2023-01-01T08:53:06.315Z,11.40
2023-01-01T08:56:13.075Z,11.47
2023-01-01T08:59:17.341Z,11.62
2023-01-01T09:02:21.435Z,11.59
2023-01-01T09:05:26.109Z,11.49
2023-01-01T09:08:30.521Z,11.45
2023-01-01T09:11:34.693Z,11.31
2023-01-01T09:14:38.981Z,11.33
2023-01-01T09:17:43.271Z,11.45
2023-01-01T09:20:48.092Z,11.48
2023-01-01T09:23:52.327Z,11.48
2023-01-01T09:26:56.400Z,11.37
2023-01-01T09:30:00.962Z,11.33
2023-01-01T09:33:05.750Z,11.26
2023-01-01T09:36:29.595Z,11.17
2023-01-01T09:39:34.207Z,11.26
2023-01-01T09:42:54.989Z,11.30
2023-01-01T09:46:07.247Z,11.30
2023-01-01T09:49:28.333Z,11.41
2023-01-01T09:52:53.903Z,11.35
2023-01-01T09:56:01.695Z,11.34
2023-01-01T09:59:10.735Z,11.38
2023-01-01T10:02:51.733Z,11.30
2023-01-01T10:06:24.830Z,11.44
2023-01-01T10:09:59.518Z,11.41
2023-01-01T10:13:36.664Z,11.40
2023-01-01T10:16:51.622Z,11.36
2023-01-01T10:20:02.010Z,11.49
2023-01-01T10:23:23.805Z,11.36
2023-01-01T10:26:31.390Z,11.37
2023-01-01T10:29:48.175Z,11.37
2023-01-01T10:32:55.419Z,11.41
2023-01-01T10:36:00.660Z,11.44
2023-01-01T10:39:05.582Z,11.36
2023-01-01T10:42:16.037Z,11.50
2023-01-01T10:45:49.145Z,11.46
2023-01-01T10:49:12.726Z,11.40
2023-01-01T10:52:17.463Z,11.48
2023-01-01T10:55:31.606Z,11.39
2023-01-01T10:58:55.928Z,11.42
2023-01-01T11:02:17.266Z,11.46
2023-01-01T11:05:22.869Z,11.58
2023-01-01T11:08:29.881Z,11.65
2023-01-01T11:11:45.833Z,11.82
2023-01-01T11:14:54.441Z,11.79
2023-01-01T11:18:13.155Z,11.82
2023-01-01T11:21:26.633Z,11.92
2023-01-01T11:24:33.799Z,11.84
2023-01-01T11:27:37.946Z,11.74
2023-01-01T11:30:57.454Z,11.71
2023-01-01T11:34:14.633Z,11.66
2023-01-01T11:37:38.187Z,11.53
2023-01-01T11:40:49.607Z,11.45
2023-01-01T11:43:53.826Z,11.38
2023-01-01T11:46:59.116Z,11.35
2023-01-01T11:50:34.256Z,11.35
2023-01-01T11:53:41.862Z,11.43
2023-01-01T11:56:51.796Z,11.50
2023-01-01T12:00:04.355Z,11.58
2023-01-01T12:03:25.541Z,11.46
2023-01-01T12:06:52.689Z,11.54
2023-01-01T12:10:23.300Z,11.57
2023-01-01T12:13:35.181Z,11.54
2023-01-01T12:17:09.844Z,11.46
2023-01-01T12:20:26.980Z,11.35
2023-01-01T12:23:35.600Z,11.32
2023-01-01T12:27:11.354Z,11.26
2023-01-01T12:30:31.273Z,11.11
2023-01-01T12:34:16.365Z,11.06
2023-01-01T12:37:47.338Z,11.12
2023-01-01T12:40:57.679Z,11.12
2023-01-01T12:44:34.579Z,11.09
2023-01-01T12:47:47.235Z,11.23
2023-01-01T12:51:13.414Z,11.30
2023-01-01T12:54:27.229Z,11.36
2023-01-01T12:58:13.220Z,11.43
2023-01-01T13:01:33.073Z,11.45
2023-01-01T13:04:39.843Z,11.43
2023-01-01T13:07:48.890Z,11.49
2023-01-01T13:10:57.542Z,11.59
2023-01-01T13:14:02.166Z,11.57
2023-01-01T13:17:17.995Z,11.56
2023-01-01T13:20:26.639Z,11.59
2023-01-01T13:23:34.971Z,11.55
2023-01-01T13:26:41.192Z,11.48
2023-01-01T13:29:47.222Z,11.49
2023-01-01T13:33:29.965Z,11.45
2023-01-01T13:36:34.212Z,11.42
2023-01-01T13:40:01.489Z,11.35
2023-01-01T13:43:19.042Z,11.48
2023-01-01T13:46:44.233Z,11.33
2023-01-01T13:50:20.159Z,11.28
2023-01-01T13:54:05.533Z,11.21
2023-01-01T13:57:36.627Z,11.18
2023-01-01T14:01:27.455Z,11.11
2023-01-01T14:05:05.397Z,11.07
2023-01-01T14:08:36.937Z,10.99
2023-01-01T14:11:41.920Z,11.01
2023-01-01T14:14:47.609Z,10.91
2023-01-01T14:17:56.353Z,10.90
2023-01-01T14:21:01.688Z,10.96
2023-01-01T14:24:08.539Z,10.96
2023-01-01T14:27:21.848Z,10.94
2023-01-01T14:30:26.764Z,10.85
2023-01-01T14:33:33.668Z,10.87
2023-01-01T14:36:38.047Z,10.79
2023-01-01T14:39:42.443Z,10.78
2023-01-01T14:42:49.124Z,10.73
2023-01-01T14:45:53.834Z,10.66
2023-01-01T14:49:07.615Z,10.68
2023-01-01T14:52:28.927Z,10.63
2023-01-01T14:55:46.270Z,10.60
2023-01-01T14:58:50.997Z,10.62
2023-01-01T15:02:03.789Z,10.60
2023-01-01T15:05:34.793Z,10.58
2023-01-01T15:08:40.238Z,10.53
2023-01-01T15:11:44.604Z,10.50
2023-01-01T15:14:52.536Z,10.41
2023-01-01T15:17:56.886Z,10.40
2023-01-01T15:21:14.254Z,10.37
2023-01-01T15:24:22.091Z,10.35
2023-01-01T15:27:30.357Z,10.27
2023-01-01T15:30:36.096Z,10.25
2023-01-01T15:33:48.235Z,10.24
2023-01-01T15:36:55.025Z,10.20
2023-01-01T15:40:21.243Z,10.18
2023-01-01T15:43:29.739Z,10.14
2023-01-01T15:46:34.550Z,10.10
2023-01-01T15:49:39.683Z,10.02
2023-01-01T15:52:46.320Z,9.93
2023-01-01T15:56:03.787Z,9.93
2023-01-01T15:59:33.421Z,9.85
2023-01-01T16:02:39.226Z,9.83
2023-01-01T16:05:49.743Z,9.84
2023-01-01T16:08:53.952Z,9.82
2023-01-01T16:11:59.424Z,9.78
2023-01-01T16:15:04.523Z,9.73
2023-01-01T16:18:12.614Z,9.66
2023-01-01T16:21:17.334Z,9.65
2023-01-01T16:24:21.981Z,9.66
2023-01-01T16:27:26.174Z,9.65
2023-01-01T16:30:30.345Z,9.63
2023-01-01T16:33:35.499Z,9.66
2023-01-01T16:36:40.387Z,9.71
2023-01-01T16:39:44.995Z,9.68
2023-01-01T16:42:49.069Z,9.66
2023-01-01T16:45:53.752Z,9.69
2023-01-01T16:48:58.211Z,9.64
2023-01-01T16:52:03.339Z,9.59
2023-01-01T16:55:07.949Z,9.63
2023-01-01T16:58:48.053Z,9.61
2023-01-01T17:01:36.799Z,9.55
2023-01-01T17:04:41.275Z,9.49
2023-01-01T17:07:47.965Z,9.44
2023-01-01T17:11:18.154Z,9.44
2023-01-01T17:14:22.499Z,9.45
2023-01-01T17:17:26.746Z,9.46
2023-01-01T17:20:30.977Z,9.45
2023-01-01T17:23:41.865Z,9.49
2023-01-01T17:26:52.707Z,9.47
2023-01-01T17:29:56.841Z,9.51
2023-01-01T17:33:01.151Z,9.53
2023-01-01T17:36:06.910Z,9.52
2023-01-01T17:39:15.890Z,9.52
2023-01-01T17:42:20.842Z,9.51
2023-01-01T17:45:25.662Z,9.51
2023-01-01T17:48:30.002Z,9.50
2023-01-01T17:51:34.096Z,9.49
2023-01-01T17:54:38.535Z,9.55
2023-01-01T17:57:43.831Z,9.60
2023-01-01T18:00:48.752Z,9.55
2023-01-01T18:04:08.248Z,9.56
2023-01-01T18:07:13.752Z,9.57
2023-01-01T18:10:17.874Z,9.56
2023-01-01T18:13:22.055Z,9.54
2023-01-01T18:16:27.406Z,9.55
2023-01-01T18:19:32.473Z,9.58
2023-01-01T18:22:42.720Z,9.54
2023-01-01T18:25:47.658Z,9.55
2023-01-01T18:28:58.648Z,9.56
2023-01-01T18:32:03.989Z,9.53
2023-01-01T18:35:09.165Z,9.54
2023-01-01T18:38:14.292Z,9.53
2023-01-01T18:41:43.171Z,9.51
2023-01-01T18:44:47.801Z,9.50
2023-01-01T18:47:52.358Z,9.52
2023-01-01T18:50:57.494Z,9.49
2023-01-01T18:54:15.648Z,9.49
2023-01-01T18:57:29.242Z,9.55
2023-01-01T19:00:36.455Z,9.57
2023-01-01T19:03:41.972Z,9.59
2023-01-01T19:06:46.943Z,9.59
2023-01-01T19:09:57.210Z,9.60
2023-01-01T19:13:24.282Z,9.62
2023-01-01T19:16:30.506Z,9.63
2023-01-01T19:19:40.622Z,9.65
2023-01-01T19:22:45.829Z,9.64
2023-01-01T19:25:53.448Z,9.67
2023-01-01T19:29:15.373Z,9.70
2023-01-01T19:32:21.325Z,9.65
2023-01-01T19:35:25.784Z,9.65
2023-01-01T19:38:30.148Z,9.63
2023-01-01T19:41:35.519Z,9.64
2023-01-01T19:44:40.120Z,9.66
2023-01-01T19:47:45.472Z,9.69
2023-01-01T19:50:49.960Z,9.66
2023-01-01T19:53:55.501Z,9.67
2023-01-01T19:56:59.729Z,9.71
2023-01-01T20:00:04.810Z,9.67
2023-01-01T20:03:51.403Z,9.74
2023-01-01T20:06:36.350Z,9.72
2023-01-01T20:09:41.033Z,9.68
2023-01-01T20:12:45.869Z,9.69
2023-01-01T20:15:50.102Z,9.71
2023-01-01T20:18:54.395Z,9.74
2023-01-01T20:22:17.724Z,9.74
2023-01-01T20:25:22.255Z,9.72
2023-01-01T20:28:45.510Z,9.73
2023-01-01T20:31:53.060Z,9.73
2023-01-01T20:34:57.965Z,9.77
2023-01-01T20:38:03.566Z,9.76
2023-01-01T20:41:25.639Z,9.81
2023-01-01T20:44:30.537Z,9.80
2023-01-01T20:47:36.620Z,9.83
2023-01-01T20:50:41.049Z,9.82
2023-01-01T20:53:45.481Z,9.81
2023-01-01T20:56:50.237Z,9.80
2023-01-01T20:59:54.794Z,9.85
2023-01-01T21:02:58.795Z,9.82
2023-01-01T21:06:04.165Z,9.83
2023-01-01T21:09:08.926Z,9.86
2023-01-01T21:12:13.582Z,9.89
2023-01-01T21:15:19.923Z,9.88
2023-01-01T21:18:24.690Z,9.88
2023-01-01T21:21:51.939Z,9.88
2023-01-01T21:25:16.912Z,9.86
2023-01-01T21:28:22.368Z,9.85
2023-01-01T21:31:36.785Z,9.82
2023-01-01T21:34:44.489Z,9.80
2023-01-01T21:37:54.100Z,9.76
2023-01-01T21:41:03.790Z,9.75
2023-01-01T21:44:14.271Z,9.78
2023-01-01T21:47:26.036Z,9.76
2023-01-01T21:50:30.256Z,9.79
2023-01-01T21:53:36.213Z,9.79
2023-01-01T21:56:42.946Z,9.81
2023-01-01T21:59:48.411Z,9.79
2023-01-01T22:02:53.355Z,9.78
2023-01-01T22:05:59.614Z,9.78
2023-01-01T22:09:16.520Z,9.78
2023-01-01T22:12:28.755Z,9.78
2023-01-01T22:15:40.677Z,9.77
2023-01-01T22:18:45.587Z,9.76
2023-01-01T22:21:52.091Z,9.77
2023-01-01T22:25:05.506Z,9.74
2023-01-01T22:28:23.538Z,9.78
2023-01-01T22:31:32.391Z,9.75
2023-01-01T22:34:37.184Z,9.75
2023-01-01T22:37:42.687Z,9.73
2023-01-01T22:40:50.632Z,9.75
2023-01-01T22:44:04.204Z,9.76
2023-01-01T22:47:17.400Z,9.76
2023-01-01T22:50:27.594Z,9.75
2023-01-01T22:53:31.855Z,9.78
2023-01-01T22:56:36.439Z,9.81
2023-01-01T22:59:40.661Z,9.80
2023-01-01T23:02:45.864Z,9.84
2023-01-01T23:05:50.352Z,9.83
2023-01-01T23:08:55.225Z,9.80
2023-01-01T23:11:59.482Z,9.83
2023-01-01T23:15:22.994Z,9.82
2023-01-01T23:18:35.867Z,9.78
2023-01-01T23:21:42.338Z,9.80
2023-01-01T23:24:47.254Z,9.82
2023-01-01T23:27:53.007Z,9.88
2023-01-01T23:31:00.613Z,9.90
2023-01-01T23:34:05.828Z,9.93
2023-01-01T23:37:11.704Z,9.94
2023-01-01T23:40:15.953Z,9.97
2023-01-01T23:43:20.179Z,9.98
2023-01-01T23:46:24.819Z,9.96
2023-01-01T23:49:32.104Z,9.96
2023-01-01T23:52:36.794Z,9.90
2023-01-01T23:55:41.910Z,9.84
2023-01-01T23:58:46.292Z,9.86
